Time;durP1;ratioP1;P1;durP2;ratioP2;P2;SDS_P1;SDS_P2;PMS_P1;PMS_P2;Temp;Humidity;BMP_temperature;BMP_pressure;BME280_temperature;BME280_humidity;BME280_pressure;Samples;Min_cycle;Max_cycle;Signal;HPM_P1;HPM_P2
2021/09/15 00:02:52;;;;;;;10.82;8.00;;;;;;;;;;6159296;28;20045;-80
2021/09/15 00:05:54;;;;;;;9.02;8.13;;;;;;;;;;6178304;28;20075;-78
2021/09/15 00:08:55;;;;;;;12.23;8.25;;;;;;;;;;6158391;28;20049;-82
2021/09/15 00:11:57;;;;;;;12.25;8.93;;;;;;;;;;6179411;28;20137;-82
2021/09/15 00:14:59;;;;;;;12.52;8.55;;;;;;;;;;6172799;28;20628;-79
2021/09/15 00:18:00;;;;;;;10.65;8.63;;;;;;;;;;6161326;28;20197;-79
2021/09/15 00:21:02;;;;;;;12.43;8.80;;;;;;;;;;6156529;28;20050;-82
2021/09/15 00:24:04;;;;;;;10.88;8.88;;;;;;;;;;6152283;28;20070;-81
2021/09/15 00:27:06;;;;;;;11.70;9.40;;;;;;;;;;6180545;28;20050;-82
2021/09/15 00:30:09;;;;;;;;;;;;;;;;;;6177265;28;20043;-81
2021/09/15 00:33:11;;;;;;;11.48;9.30;;;;;;;;;;6156879;28;20340;-79
2021/09/15 00:36:13;;;;;;;11.48;8.63;;;;;;;;;;6163302;28;20534;-81
2021/09/15 00:39:14;;;;;;;12.40;9.23;;;;;;;;;;6177242;28;20053;-80
2021/09/15 00:42:16;;;;;;;10.88;9.07;;;;;;;;;;6177463;28;20125;-79
2021/09/15 00:45:18;;;;;;;13.73;10.18;;;;;;;;;;6178681;28;20043;-81
2021/09/15 00:48:19;;;;;;;13.52;9.60;;;;;;;;;;6178574;28;20047;-82
2021/09/15 00:51:21;;;;;;;10.75;9.48;;;;;;;;;;6179820;28;20110;-78
2021/09/15 00:54:23;;;;;;;10.50;8.95;;;;;;;;;;6158946;28;20045;-79
2021/09/15 00:57:25;;;;;;;13.40;9.60;;;;;;;;;;6177296;28;20043;-80
2021/09/15 01:00:26;;;;;;;11.90;9.70;;;;;;;;;;6173626;28;20062;-81
2021/09/15 01:03:31;;;;;;;11.32;8.88;;;;;;;;;;6169053;28;20050;-80
2021/09/15 01:06:34;;;;;;;10.75;8.88;;;;;;;;;;6164271;28;20185;-78
2021/09/15 01:09:40;;;;;;;9.80;8.57;;;;;;;;;;6181766;28;20535;-79
2021/09/15 01:12:47;;;;;;;11.50;9.23;;;;;;;;;;6165331;28;20050;-78
2021/09/15 01:16:11;;;;;;;12.93;8.52;;;;;;;;;;6165801;28;20047;-80
2021/09/15 01:19:48;;;;;;;11.25;7.93;;;;;;;;;;6143074;28;20047;-79
2021/09/15 01:23:09;;;;;;;13.02;9.63;;;;;;;;;;6168717;28;20051;-79
2021/09/15 01:26:36;;;;;;;11.35;9.20;;;;;;;;;;6161349;28;20051;-80
2021/09/15 01:30:16;;;;;;;10.13;8.98;;;;;;;;;;6155472;28;20130;-79
2021/09/15 01:33:24;;;;;;;12.95;9.23;;;;;;;;;;6171472;28;20122;-80
2021/09/15 01:36:25;;;;;;;13.40;10.10;;;;;;;;;;6155094;28;20047;-79
2021/09/15 01:39:27;;;;;;;13.30;9.85;;;;;;;;;;6158149;28;20054;-80
2021/09/15 01:42:30;;;;;;;10.57;8.85;;;;;;;;;;6149879;28;20043;-79
2021/09/15 01:45:34;;;;;;;10.40;8.82;;;;;;;;;;6145617;28;20039;-78
2021/09/15 01:48:41;;;;;;;11.15;8.50;;;;;;;;;;6169666;28;20038;-81
2021/09/15 01:51:42;;;;;;;12.30;8.95;;;;;;;;;;6155438;28;20459;-79
2021/09/15 01:54:46;;;;;;;12.40;9.27;;;;;;;;;;6153231;28;20043;-82
2021/09/15 01:57:48;;;;;;;11.05;9.13;;;;;;;;;;6171226;28;20051;-80
2021/09/15 02:01:12;;;;;;;10.70;9.18;;;;;;;;;;6168485;28;20062;-80
2021/09/15 02:04:29;;;;;;;14.48;9.35;;;;;;;;;;6172664;28;20066;-80
2021/09/15 02:07:48;;;;;;;14.43;9.38;;;;;;;;;;6170888;28;20046;-79
2021/09/15 02:11:08;;;;;;;12.65;9.82;;;;;;;;;;6168630;28;20054;-80
2021/09/15 02:14:10;;;;;;;13.10;10.13;;;;;;;;;;6172429;28;20038;-79
2021/09/15 02:17:20;;;;;;;13.43;8.93;;;;;;;;;;6169844;28;20042;-80
2021/09/15 02:20:27;;;;;;;14.55;9.50;;;;;;;;;;6156908;28;20050;-81
2021/09/15 02:23:40;;;;;;;11.10;9.50;;;;;;;;;;6144354;28;20105;-80
2021/09/15 02:26:50;;;;;;;12.43;9.35;;;;;;;;;;6156389;28;20042;-79
2021/09/15 02:29:53;;;;;;;10.95;9.15;;;;;;;;;;6166731;28;20039;-82
2021/09/15 02:33:14;;;;;;;12.75;9.23;;;;;;;;;;6168338;28;20049;-79
2021/09/15 02:36:31;;;;;;;12.07;9.25;;;;;;;;;;6169770;28;20050;-81
2021/09/15 02:39:51;;;;;;;10.45;9.05;;;;;;;;;;6169137;28;20096;-81
2021/09/15 02:42:59;;;;;;;10.07;8.70;;;;;;;;;;6145830;28;20036;-79
2021/09/15 02:46:13;;;;;;;11.38;9.18;;;;;;;;;;6168489;28;20043;-81
2021/09/15 02:49:38;;;;;;;14.90;9.25;;;;;;;;;;6158587;28;20504;-80
2021/09/15 02:52:57;;;;;;;11.45;8.98;;;;;;;;;;6154473;28;20050;-80
2021/09/15 02:56:20;;;;;;;11.75;8.98;;;;;;;;;;6156368;28;20066;-80
2021/09/15 02:59:40;;;;;;;12.50;9.70;;;;;;;;;;6146310;28;20047;-79
2021/09/15 03:03:13;;;;;;;16.23;9.53;;;;;;;;;;6177870;28;20054;-80
2021/09/15 03:06:35;;;;;;;9.95;8.68;;;;;;;;;;6170704;28;20062;-80
2021/09/15 03:09:40;;;;;;;12.77;9.32;;;;;;;;;;6167750;28;20047;-80
2021/09/15 03:12:43;;;;;;;12.50;9.45;;;;;;;;;;6148645;28;20568;-80
2021/09/15 03:15:46;;;;;;;12.57;9.45;;;;;;;;;;6159884;28;20519;-82
2021/09/15 03:18:47;;;;;;;10.47;8.93;;;;;;;;;;6170645;28;20529;-82
2021/09/15 03:21:49;;;;;;;12.65;9.27;;;;;;;;;;6170973;28;20050;-81
2021/09/15 03:24:51;;;;;;;11.40;9.30;;;;;;;;;;6165728;28;20102;-81
2021/09/15 03:27:53;;;;;;;11.38;9.35;;;;;;;;;;6169901;28;20504;-81
2021/09/15 03:30:55;;;;;;;11.45;8.80;;;;;;;;;;6169117;28;20455;-80
2021/09/15 03:33:56;;;;;;;11.98;9.55;;;;;;;;;;6172365;28;20050;-82
2021/09/15 03:36:58;;;;;;;11.95;9.15;;;;;;;;;;6156494;28;20058;-82
2021/09/15 03:40:01;;;;;;;12.30;9.65;;;;;;;;;;6171384;28;20043;-82
2021/09/15 03:43:03;;;;;;;12.98;9.52;;;;;;;;;;6172705;28;20058;-82
2021/09/15 03:46:05;;;;;;;14.40;9.20;;;;;;;;;;6174090;28;20046;-82
2021/09/15 03:49:07;;;;;;;10.20;9.10;;;;;;;;;;6188741;28;20133;-82
2021/09/15 03:52:09;;;;;;;11.85;9.07;;;;;;;;;;6153404;28;20117;-82
2021/09/15 03:55:11;;;;;;;10.23;9.02;;;;;;;;;;6183016;28;20038;-82
2021/09/15 03:58:13;;;;;;;11.05;8.48;;;;;;;;;;6164901;28;20050;-81
2021/09/15 04:01:15;;;;;;;10.48;9.38;;;;;;;;;;6169397;28;20181;-82
2021/09/15 04:04:18;;;;;;;13.65;9.88;;;;;;;;;;6133536;28;20047;-82
2021/09/15 04:07:19;;;;;;;10.75;9.15;;;;;;;;;;6147092;28;20047;-81
2021/09/15 04:10:21;;;;;;;12.65;8.98;;;;;;;;;;6130765;28;20051;-80
2021/09/15 04:13:23;;;;;;;11.27;9.53;;;;;;;;;;6162916;28;20086;-82
2021/09/15 04:16:25;;;;;;;11.45;9.20;;;;;;;;;;6168119;28;20053;-81
2021/09/15 04:19:27;;;;;;;12.35;9.10;;;;;;;;;;6155258;28;20077;-81
2021/09/15 04:22:29;;;;;;;10.75;8.63;;;;;;;;;;6154765;28;20046;-81
2021/09/15 04:32:13;;;;;;;12.75;9.38;;;;;;;;;;6172443;28;20146;-79
2021/09/15 04:35:16;;;;;;;13.55;9.50;;;;;;;;;;6175706;28;20039;-81
2021/09/15 04:38:18;;;;;;;12.82;9.52;;;;;;;;;;6157548;28;20134;-80
2021/09/15 04:41:20;;;;;;;12.13;9.27;;;;;;;;;;6174791;28;20050;-80
2021/09/15 04:44:21;;;;;;;12.13;9.45;;;;;;;;;;6172371;28;20065;-80
2021/09/15 04:47:24;;;;;;;14.18;9.07;;;;;;;;;;6158126;28;20231;-79
2021/09/15 04:50:26;;;;;;;10.75;9.60;;;;;;;;;;6175784;28;20039;-80
2021/09/15 04:53:28;;;;;;;11.65;9.57;;;;;;;;;;6173740;28;20046;-81
2021/09/15 04:56:29;;;;;;;12.00;9.65;;;;;;;;;;6174723;28;20178;-80
2021/09/15 04:59:31;;;;;;;16.05;9.93;;;;;;;;;;6174788;28;20047;-80
2021/09/15 05:02:33;;;;;;;17.52;10.35;;;;;;;;;;6166261;28;20676;-81
2021/09/15 05:05:43;;;;;;;12.48;9.80;;;;;;;;;;6175198;28;20043;-80
2021/09/15 05:08:49;;;;;;;14.57;10.25;;;;;;;;;;6175864;28;20047;-81
2021/09/15 05:11:51;;;;;;;15.15;10.00;;;;;;;;;;6171033;28;20050;-79
2021/09/15 05:14:54;;;;;;;12.07;10.02;;;;;;;;;;6149829;28;20049;-80
2021/09/15 05:17:56;;;;;;;14.40;9.77;;;;;;;;;;6172459;28;20653;-79
2021/09/15 05:21:01;;;;;;;16.52;10.77;;;;;;;;;;6172498;28;20110;-81
2021/09/15 05:24:04;;;;;;;13.13;9.93;;;;;;;;;;6158096;28;20053;-81
2021/09/15 05:27:06;;;;;;;12.18;9.30;;;;;;;;;;6175398;28;20094;-80
2021/09/15 05:30:09;;;;;;;11.60;9.50;;;;;;;;;;6156910;28;20046;-81
2021/09/15 05:33:14;;;;;;;12.10;9.65;;;;;;;;;;6167586;28;20054;-81
2021/09/15 05:36:16;;;;;;;14.68;9.60;;;;;;;;;;6198451;28;20113;-80
2021/09/15 05:39:18;;;;;;;12.77;10.18;;;;;;;;;;6190367;28;20042;-81
2021/09/15 05:42:19;;;;;;;11.52;9.60;;;;;;;;;;6157562;28;20043;-81
2021/09/15 05:45:21;;;;;;;12.50;9.85;;;;;;;;;;6157090;28;20043;-81
2021/09/15 05:48:24;;;;;;;12.65;9.65;;;;;;;;;;6157390;28;20062;-81
2021/09/15 05:51:26;;;;;;;15.38;10.80;;;;;;;;;;6176304;28;20512;-80
2021/09/15 05:54:28;;;;;;;13.18;10.25;;;;;;;;;;6155291;28;20158;-80
2021/09/15 05:57:29;;;;;;;13.98;10.48;;;;;;;;;;6173667;28;20047;-80
2021/09/15 06:00:31;;;;;;;14.40;10.48;;;;;;;;;;6153456;28;20053;-79
2021/09/15 06:03:39;;;;;;;13.63;10.23;;;;;;;;;;6147975;28;20110;-79
2021/09/15 06:06:53;;;;;;;15.05;11.05;;;;;;;;;;6175522;28;20055;-78
2021/09/15 06:09:56;;;;;;;15.43;11.07;;;;;;;;;;6174502;28;20049;-81
2021/09/15 06:12:58;;;;;;;13.15;10.93;;;;;;;;;;6158383;28;20069;-80
2021/09/15 06:15:59;;;;;;;15.45;10.95;;;;;;;;;;6173929;28;20095;-79
2021/09/15 06:19:06;;;;;;;15.55;11.75;;;;;;;;;;6152422;28;20063;-79
2021/09/15 06:22:10;;;;;;;14.25;11.18;;;;;;;;;;6150938;28;20051;-80
2021/09/15 06:25:15;;;;;;;14.32;11.18;;;;;;;;;;6172368;28;20070;-80
2021/09/15 06:28:18;;;;;;;15.52;11.15;;;;;;;;;;6160302;28;20043;-79
2021/09/15 06:31:24;;;;;;;17.17;11.60;;;;;;;;;;6171603;28;20411;-81
2021/09/15 06:34:26;;;;;;;15.55;11.80;;;;;;;;;;6172622;28;20461;-80
2021/09/15 06:37:28;;;;;;;12.02;10.70;;;;;;;;;;6157391;28;20583;-80
2021/09/15 06:40:31;;;;;;;13.55;10.98;;;;;;;;;;6133596;28;20094;-79
2021/09/15 06:43:32;;;;;;;14.00;10.25;;;;;;;;;;6175197;28;20051;-80
2021/09/15 06:46:34;;;;;;;15.55;11.55;;;;;;;;;;6173115;28;20047;-80
2021/09/15 06:49:36;;;;;;;13.32;11.23;;;;;;;;;;6170948;28;20053;-80
2021/09/15 06:52:39;;;;;;;13.93;10.80;;;;;;;;;;6167109;28;20119;-80
2021/09/15 06:55:41;;;;;;;14.40;11.07;;;;;;;;;;6169312;28;20130;-81
2021/09/15 06:58:43;;;;;;;14.48;12.02;;;;;;;;;;6170514;28;20051;-81
2021/09/15 07:01:45;;;;;;;16.40;11.80;;;;;;;;;;6151501;28;20049;-80
2021/09/15 07:04:47;;;;;;;18.40;12.48;;;;;;;;;;6168671;28;20281;-82
2021/09/15 07:07:49;;;;;;;14.10;11.73;;;;;;;;;;6171511;28;20039;-80
2021/09/15 07:10:50;;;;;;;16.85;11.85;;;;;;;;;;6174929;28;20085;-80
2021/09/15 07:13:52;;;;;;;18.58;12.35;;;;;;;;;;6175312;28;20070;-81
2021/09/15 07:16:54;;;;;;;16.83;13.00;;;;;;;;;;6160246;28;20046;-80
2021/09/15 07:19:55;;;;;;;21.23;15.27;;;;;;;;;;6177528;28;20050;-80
2021/09/15 07:22:57;;;;;;;21.52;15.77;;;;;;;;;;6158239;28;20042;-80
2021/09/15 07:25:59;;;;;;;20.35;15.05;;;;;;;;;;6176793;28;20133;-79
2021/09/15 07:29:00;;;;;;;24.08;16.38;;;;;;;;;;6176698;28;20053;-80
2021/09/15 07:32:02;;;;;;;21.48;15.13;;;;;;;;;;6173914;28;20118;-81
2021/09/15 07:35:05;;;;;;;19.92;15.38;;;;;;;;;;6176770;28;20070;-79
2021/09/15 07:38:06;;;;;;;21.63;15.88;;;;;;;;;;6177529;28;20111;-80
2021/09/15 07:41:08;;;;;;;22.20;15.95;;;;;;;;;;6178756;28;20118;-80
2021/09/15 07:44:09;;;;;;;24.33;16.10;;;;;;;;;;6180020;28;20106;-82
2021/09/15 07:47:15;;;;;;;24.85;16.88;;;;;;;;;;6179968;28;20138;-81
2021/09/15 07:50:17;;;;;;;23.55;16.90;;;;;;;;;;6183451;28;20098;-80
2021/09/15 07:53:19;;;;;;;21.30;16.02;;;;;;;;;;6142407;28;20556;-80
2021/09/15 07:56:23;;;;;;;22.38;16.98;;;;;;;;;;6134148;28;20572;-81
2021/09/15 07:59:25;;;;;;;21.38;16.23;;;;;;;;;;6157928;28;20039;-80
2021/09/15 08:02:26;;;;;;;20.77;16.15;;;;;;;;;;6157061;28;20075;-80
2021/09/15 08:05:28;;;;;;;20.58;15.50;;;;;;;;;;6160704;28;20126;-81
2021/09/15 08:08:31;;;;;;;26.70;17.47;;;;;;;;;;6164981;28;20137;-81
2021/09/15 08:11:33;;;;;;;25.73;20.17;;;;;;;;;;6169814;28;20059;-80
2021/09/15 08:14:35;;;;;;;28.23;19.13;;;;;;;;;;6153030;28;20039;-82
2021/09/15 08:17:38;;;;;;;21.90;15.55;;;;;;;;;;6178686;28;20512;-80
2021/09/15 08:20:45;;;;;;;23.90;16.55;;;;;;;;;;6176791;28;20098;-80
2021/09/15 08:23:47;;;;;;;22.98;17.25;;;;;;;;;;6181002;28;20054;-81
2021/09/15 08:26:49;;;;;;;22.80;16.65;;;;;;;;;;6182831;28;20055;-79
2021/09/15 08:29:50;;;;;;;19.60;15.82;;;;;;;;;;6183636;28;20093;-81
2021/09/15 08:32:52;;;;;;;19.70;15.85;;;;;;;;;;6166624;28;20047;-81
2021/09/15 08:35:53;;;;;;;18.80;15.50;;;;;;;;;;6167279;28;20074;-81
2021/09/15 08:38:55;;;;;;;20.27;15.15;;;;;;;;;;6180638;28;20057;-79
2021/09/15 08:41:57;;;;;;;22.20;15.55;;;;;;;;;;6181769;28;20254;-81
2021/09/15 08:44:59;;;;;;;18.85;14.70;;;;;;;;;;6180573;28;20050;-82
2021/09/15 08:48:02;;;;;;;19.25;14.10;;;;;;;;;;6182497;28;20043;-82
2021/09/15 08:51:04;;;;;;;16.55;13.00;;;;;;;;;;6181682;28;20070;-82
2021/09/15 08:54:07;;;;;;;12.02;9.55;;;;;;;;;;6165132;28;20058;-79
2021/09/15 08:57:11;;;;;;;12.75;9.43;;;;;;;;;;6158084;28;20054;-81
2021/09/15 09:00:14;;;;;;;14.13;9.60;;;;;;;;;;6163043;28;20046;-81
2021/09/15 09:03:15;;;;;;;10.80;9.60;;;;;;;;;;6177872;28;20047;-80
2021/09/15 09:06:18;;;;;;;11.52;9.13;;;;;;;;;;6182520;28;20055;-80
2021/09/15 09:09:20;;;;;;;;;;;;;;;;;;6182790;28;20047;-82
2021/09/15 09:12:25;;;;;;;9.23;7.68;;;;;;;;;;6178265;28;19922;-80
2021/09/15 09:15:27;;;;;;;12.38;8.23;;;;;;;;;;6163204;28;20050;-83
2021/09/15 09:18:55;;;;;;;10.75;8.25;;;;;;;;;;6180216;28;20082;-82
2021/09/15 09:21:59;;;;;;;10.05;7.68;;;;;;;;;;6160130;28;20051;-82
2021/09/15 09:25:01;;;;;;;9.30;7.55;;;;;;;;;;6155067;28;20050;-80
2021/09/15 09:28:36;;;;;;;10.68;7.90;;;;;;;;;;6174165;28;20389;-82
2021/09/15 09:31:38;;;;;;;9.25;7.65;;;;;;;;;;6162358;28;20043;-82
2021/09/15 09:34:52;;;;;;;10.27;7.78;;;;;;;;;;6165792;28;20566;-83
2021/09/15 09:37:53;;;;;;;10.05;7.70;;;;;;;;;;6165645;28;20126;-82
2021/09/15 09:41:02;;;;;;;8.32;7.03;;;;;;;;;;6160310;28;20110;-81
2021/09/15 09:44:04;;;;;;;8.38;6.63;;;;;;;;;;6175561;28;20047;-81
2021/09/15 09:47:19;;;;;;;8.90;7.05;;;;;;;;;;6133907;28;20054;-80
2021/09/15 09:50:22;;;;;;;10.05;7.38;;;;;;;;;;6164124;28;20061;-82
2021/09/15 09:53:31;;;;;;;9.75;7.32;;;;;;;;;;6178259;28;20038;-83
2021/09/15 09:56:34;;;;;;;8.60;7.03;;;;;;;;;;6165688;28;20043;-83
2021/09/15 09:59:36;;;;;;;9.63;7.07;;;;;;;;;;6159596;28;20524;-82
2021/09/15 10:02:38;;;;;;;8.82;6.93;;;;;;;;;;6167297;28;20129;-82
2021/09/15 10:05:40;;;;;;;10.20;7.53;;;;;;;;;;6148932;28;20047;-83
2021/09/15 10:08:44;;;;;;;10.07;6.63;;;;;;;;;;6148939;28;20057;-82
2021/09/15 10:11:45;;;;;;;8.07;6.75;;;;;;;;;;6171157;28;20057;-83
2021/09/15 10:14:47;;;;;;;9.80;6.55;;;;;;;;;;6153057;28;20066;-83
2021/09/15 10:17:55;;;;;;;8.03;6.70;;;;;;;;;;6170526;28;20054;-84
2021/09/15 10:20:58;;;;;;;6.53;5.85;;;;;;;;;;6170475;28;20076;-84
2021/09/15 10:24:00;;;;;;;8.18;6.57;;;;;;;;;;6167748;28;20055;-83
2021/09/15 10:27:02;;;;;;;7.72;6.60;;;;;;;;;;6173607;28;20046;-83
2021/09/15 10:30:07;;;;;;;8.23;5.60;;;;;;;;;;6172303;28;20097;-81
2021/09/15 10:33:37;;;;;;;7.82;6.07;;;;;;;;;;6176477;28;20047;-82
2021/09/15 10:36:39;;;;;;;7.95;6.00;;;;;;;;;;6173083;28;20046;-83
2021/09/15 10:39:54;;;;;;;7.97;5.13;;;;;;;;;;6154927;28;20125;-83
2021/09/15 10:42:56;;;;;;;6.95;5.10;;;;;;;;;;6172523;28;20129;-81
2021/09/15 10:46:29;;;;;;;6.25;5.53;;;;;;;;;;6170649;28;20045;-82
2021/09/15 10:49:31;;;;;;;8.25;5.40;;;;;;;;;;6113471;28;20098;-81
2021/09/15 10:52:43;;;;;;;8.88;5.78;;;;;;;;;;6193221;28;20073;-80
2021/09/15 10:55:45;;;;;;;7.22;5.90;;;;;;;;;;6136476;28;20043;-81
2021/09/15 10:58:47;;;;;;;7.32;5.15;;;;;;;;;;6162765;28;20038;-79
2021/09/15 11:01:49;;;;;;;5.85;5.18;;;;;;;;;;6155507;28;20052;-82
2021/09/15 11:04:51;;;;;;;8.17;5.23;;;;;;;;;;6127978;28;20065;-80
2021/09/15 11:07:57;;;;;;;5.93;5.32;;;;;;;;;;6130576;28;20518;-80
2021/09/15 11:10:59;;;;;;;7.93;5.97;;;;;;;;;;6147481;28;20070;-80
2021/09/15 11:14:07;;;;;;;7.38;5.65;;;;;;;;;;6142226;28;20058;-80
2021/09/15 11:17:09;;;;;;;8.10;5.55;;;;;;;;;;6164771;28;20475;-78
2021/09/15 11:20:11;;;;;;;7.13;5.88;;;;;;;;;;6167927;28;20050;-80
2021/09/15 11:23:14;;;;;;;8.30;6.30;;;;;;;;;;6167603;28;20046;-80
2021/09/15 11:26:16;;;;;;;7.47;6.22;;;;;;;;;;6167676;28;20131;-80
2021/09/15 11:29:36;;;;;;;9.05;5.97;;;;;;;;;;6167463;28;20135;-81
2021/09/15 11:32:44;;;;;;;7.43;5.63;;;;;;;;;;6165826;28;20053;-82
2021/09/15 11:35:46;;;;;;;7.65;5.47;;;;;;;;;;6167170;28;20126;-80
2021/09/15 11:38:47;;;;;;;7.20;5.30;;;;;;;;;;6149276;28;20098;-80
2021/09/15 11:41:49;;;;;;;5.97;5.38;;;;;;;;;;6167187;28;20038;-80
2021/09/15 11:44:51;;;;;;;7.25;5.38;;;;;;;;;;6151814;28;20035;-81
2021/09/15 11:47:54;;;;;;;7.05;4.97;;;;;;;;;;6156008;28;20062;-80
2021/09/15 11:50:56;;;;;;;6.03;4.95;;;;;;;;;;6151234;28;20039;-80
2021/09/15 11:54:13;;;;;;;6.18;5.07;;;;;;;;;;6156872;28;20066;-78
2021/09/15 11:57:15;;;;;;;6.38;5.43;;;;;;;;;;6180693;28;20102;-80
2021/09/15 12:00:17;;;;;;;;;;;;;;;;;;6154331;28;20721;-79
2021/09/15 12:03:25;;;;;;;7.30;5.10;;;;;;;;;;6152562;28;20017;-80
2021/09/15 12:06:27;;;;;;;8.25;4.95;;;;;;;;;;6156145;28;20133;-80
2021/09/15 12:09:30;;;;;;;5.55;4.93;;;;;;;;;;6168360;28;20089;-80
2021/09/15 12:12:34;;;;;;;4.45;3.80;;;;;;;;;;6157376;28;20063;-79
2021/09/15 12:15:47;;;;;;;8.30;4.03;;;;;;;;;;6155249;28;20047;-80
2021/09/15 12:18:50;;;;;;;9.90;3.25;;;;;;;;;;6181641;28;20125;-82
2021/09/15 12:21:52;;;;;;;7.88;3.25;;;;;;;;;;6159563;28;20071;-83
2021/09/15 12:25:09;;;;;;;3.75;3.10;;;;;;;;;;6165280;28;20047;-80
2021/09/15 12:28:11;;;;;;;4.35;3.08;;;;;;;;;;6180821;28;20095;-80
2021/09/15 12:31:16;;;;;;;6.40;3.10;;;;;;;;;;6161864;28;20113;-80
2021/09/15 12:34:36;;;;;;;6.40;3.35;;;;;;;;;;6179660;28;20058;-80
2021/09/15 12:37:39;;;;;;;4.40;3.38;;;;;;;;;;6169709;28;20060;-79
2021/09/15 12:40:41;;;;;;;5.63;3.85;;;;;;;;;;6191508;28;20047;-81
2021/09/15 12:43:43;;;;;;;4.53;3.43;;;;;;;;;;6163919;28;20050;-82
2021/09/15 12:46:49;;;;;;;6.38;3.90;;;;;;;;;;6181516;28;20450;-79
2021/09/15 12:49:51;;;;;;;6.70;3.40;;;;;;;;;;6158744;28;20404;-81
2021/09/15 12:53:10;;;;;;;5.90;4.35;;;;;;;;;;6157450;28;20511;-80
2021/09/15 12:56:12;;;;;;;6.03;3.95;;;;;;;;;;6177272;28;20416;-82
2021/09/15 12:59:28;;;;;;;4.35;3.92;;;;;;;;;;6180413;28;20705;-82
2021/09/15 13:02:30;;;;;;;7.78;4.03;;;;;;;;;;6164588;28;20125;-78
2021/09/15 13:05:34;;;;;;;5.85;3.85;;;;;;;;;;6176259;28;20063;-82
2021/09/15 13:08:45;;;;;;;7.97;4.20;;;;;;;;;;6174986;28;20170;-81
2021/09/15 13:11:47;;;;;;;6.68;3.97;;;;;;;;;;6169826;28;20134;-82
2021/09/15 13:14:51;;;;;;;5.38;4.10;;;;;;;;;;6185427;28;20047;-80
2021/09/15 13:17:54;;;;;;;5.68;4.00;;;;;;;;;;6178678;28;20215;-81
2021/09/15 13:20:55;;;;;;;5.80;4.47;;;;;;;;;;6177799;28;20468;-81
2021/09/15 13:23:57;;;;;;;5.03;4.45;;;;;;;;;;6176742;28;20187;-81
2021/09/15 13:26:59;;;;;;;7.25;4.45;;;;;;;;;;6177168;28;20057;-79
2021/09/15 13:30:02;;;;;;;6.07;4.57;;;;;;;;;;6175196;28;20519;-80
2021/09/15 13:33:03;;;;;;;6.07;4.90;;;;;;;;;;6181354;28;20110;-82
2021/09/15 13:36:05;;;;;;;6.22;4.80;;;;;;;;;;6179568;28;20145;-79
2021/09/15 13:39:07;;;;;;;8.02;5.07;;;;;;;;;;6176578;28;20046;-82
2021/09/15 13:42:08;;;;;;;8.88;4.75;;;;;;;;;;6165758;28;20468;-80
2021/09/15 13:45:13;;;;;;;6.80;4.47;;;;;;;;;;6199435;28;20114;-80
2021/09/15 13:48:14;;;;;;;6.60;5.00;;;;;;;;;;6178104;28;20039;-80
2021/09/15 13:51:16;;;;;;;7.35;5.50;;;;;;;;;;6179915;28;20106;-79
2021/09/15 13:54:18;;;;;;;6.03;4.60;;;;;;;;;;6172314;28;20117;-81
2021/09/15 13:57:19;;;;;;;7.00;4.55;;;;;;;;;;6178811;28;20046;-82
2021/09/15 14:00:21;;;;;;;6.15;5.03;;;;;;;;;;6179127;28;20567;-81
2021/09/15 14:03:22;;;;;;;6.53;5.00;;;;;;;;;;6149934;28;20065;-80
2021/09/15 14:06:24;;;;;;;6.18;5.18;;;;;;;;;;6157226;28;20119;-80
2021/09/15 14:09:26;;;;;;;6.15;4.88;;;;;;;;;;6179996;28;20047;-80
2021/09/15 14:12:48;;;;;;;7.55;5.30;;;;;;;;;;6180703;28;20051;-81
2021/09/15 14:15:49;;;;;;;6.32;5.20;;;;;;;;;;6175201;28;20055;-80
2021/09/15 14:18:51;;;;;;;9.52;5.45;;;;;;;;;;6171048;28;20496;-80
2021/09/15 14:21:52;;;;;;;5.65;4.95;;;;;;;;;;6159800;28;20066;-81
2021/09/15 14:24:54;;;;;;;6.05;5.45;;;;;;;;;;6161418;28;20139;-79
2021/09/15 14:27:56;;;;;;;8.20;5.50;;;;;;;;;;6178814;28;20131;-81
2021/09/15 14:30:57;;;;;;;7.57;5.75;;;;;;;;;;6160361;28;20046;-80
2021/09/15 14:34:00;;;;;;;8.15;5.53;;;;;;;;;;6139622;28;20082;-80
2021/09/15 14:37:01;;;;;;;;;;;;;;;;;;6152312;28;20050;-81
2021/09/15 14:40:05;;;;;;;9.35;5.70;;;;;;;;;;6164105;28;19986;-81
2021/09/15 14:43:06;;;;;;;7.10;5.07;;;;;;;;;;6165230;28;20054;-81
2021/09/15 14:46:08;;;;;;;9.35;5.30;;;;;;;;;;6155194;28;20065;-80
2021/09/15 14:49:12;;;;;;;6.78;5.07;;;;;;;;;;6174379;28;20089;-80
2021/09/15 14:52:13;;;;;;;7.82;5.70;;;;;;;;;;6164749;28;20443;-79
2021/09/15 14:55:15;;;;;;;7.07;5.85;;;;;;;;;;6170664;28;20492;-80
2021/09/15 14:58:17;;;;;;;5.93;5.25;;;;;;;;;;6163745;28;20043;-80
2021/09/15 15:01:18;;;;;;;6.70;5.55;;;;;;;;;;6163497;28;20055;-80
2021/09/15 15:04:20;;;;;;;5.70;5.00;;;;;;;;;;6174258;28;20142;-80
2021/09/15 15:07:22;;;;;;;6.03;5.25;;;;;;;;;;6171801;28;20071;-81
2021/09/15 15:10:23;;;;;;;5.60;4.65;;;;;;;;;;6171089;28;20135;-80
2021/09/15 15:13:25;;;;;;;5.63;4.53;;;;;;;;;;6150399;28;20102;-80
2021/09/15 15:16:27;;;;;;;6.25;5.13;;;;;;;;;;6170143;28;20098;-81
2021/09/15 15:19:30;;;;;;;5.68;4.22;;;;;;;;;;6164071;28;20134;-80
2021/09/15 15:22:33;;;;;;;5.80;3.75;;;;;;;;;;6166040;28;20110;-80
2021/09/15 15:25:35;;;;;;;4.68;3.70;;;;;;;;;;6167527;28;20186;-81
2021/09/15 15:28:37;;;;;;;4.47;4.07;;;;;;;;;;6171257;28;20046;-82
2021/09/15 15:31:40;;;;;;;6.15;4.57;;;;;;;;;;6132396;29;20115;-79
2021/09/15 15:34:41;;;;;;;5.88;4.25;;;;;;;;;;6178621;28;20107;-82
2021/09/15 15:37:44;;;;;;;5.30;4.10;;;;;;;;;;6179286;28;20093;-80
2021/09/15 15:40:46;;;;;;;5.97;4.13;;;;;;;;;;6175404;28;20050;-79
2021/09/15 15:43:47;;;;;;;5.75;4.32;;;;;;;;;;6183557;28;20057;-82
2021/09/15 15:46:53;;;;;;;8.05;4.35;;;;;;;;;;6180240;28;20058;-80
2021/09/15 15:49:55;;;;;;;8.50;4.75;;;;;;;;;;6153738;28;20126;-80
2021/09/15 15:52:57;;;;;;;6.40;4.28;;;;;;;;;;6150521;28;20048;-81
2021/09/15 15:55:58;;;;;;;5.85;4.45;;;;;;;;;;6153835;28;20607;-80
2021/09/15 15:59:00;;;;;;;5.57;4.43;;;;;;;;;;6177671;28;20043;-81
2021/09/15 16:02:03;;;;;;;9.15;4.70;;;;;;;;;;6155321;28;20359;-80
2021/09/15 16:05:05;;;;;;;5.28;4.03;;;;;;;;;;6177927;28;20043;-79
2021/09/15 16:08:07;;;;;;;6.35;4.43;;;;;;;;;;6176855;28;20124;-80
2021/09/15 16:11:08;;;;;;;6.57;4.53;;;;;;;;;;6178488;28;20098;-79
2021/09/15 16:14:10;;;;;;;10.30;5.15;;;;;;;;;;6154935;28;20099;-80
2021/09/15 16:17:12;;;;;;;6.15;4.93;;;;;;;;;;6168257;28;20054;-81
2021/09/15 16:20:13;;;;;;;5.82;4.90;;;;;;;;;;6177329;28;20046;-80
2021/09/15 16:23:15;;;;;;;6.80;5.10;;;;;;;;;;6175085;28;20504;-79
2021/09/15 16:26:17;;;;;;;6.72;5.30;;;;;;;;;;6170840;28;20057;-80
2021/09/15 16:29:19;;;;;;;7.73;4.77;;;;;;;;;;6160468;28;20106;-80
2021/09/15 16:32:21;;;;;;;7.50;5.97;;;;;;;;;;6176224;28;20456;-80
2021/09/15 16:35:23;;;;;;;7.93;7.00;;;;;;;;;;6179946;28;20479;-80
2021/09/15 16:38:25;;;;;;;7.97;6.18;;;;;;;;;;6152718;28;20564;-80
2021/09/15 16:41:27;;;;;;;7.68;5.85;;;;;;;;;;6175495;28;20051;-79
2021/09/15 16:44:29;;;;;;;9.98;5.80;;;;;;;;;;6196910;28;20050;-78
2021/09/15 16:47:31;;;;;;;7.90;5.97;;;;;;;;;;6172616;28;20043;-79
2021/09/15 16:50:33;;;;;;;9.35;5.65;;;;;;;;;;6172951;28;20047;-78
2021/09/15 16:53:35;;;;;;;9.13;5.57;;;;;;;;;;6171822;28;20571;-80
2021/09/15 16:56:37;;;;;;;7.67;5.80;;;;;;;;;;6185216;28;20043;-78
2021/09/15 16:59:38;;;;;;;12.57;5.75;;;;;;;;;;6156914;28;20039;-80
2021/09/15 17:02:40;;;;;;;8.50;5.43;;;;;;;;;;6181043;28;20468;-80
2021/09/15 17:05:42;;;;;;;5.18;3.22;;;;;;;;;;6178748;28;20078;-80
2021/09/15 17:08:45;;;;;;;4.28;2.95;;;;;;;;;;6161871;28;20508;-81
2021/09/15 17:11:48;;;;;;;5.32;2.60;;;;;;;;;;6179766;28;20047;-80
2021/09/15 17:14:50;;;;;;;4.90;3.20;;;;;;;;;;6196729;28;20042;-80
2021/09/15 17:17:51;;;;;;;4.40;2.83;;;;;;;;;;6177874;28;20101;-80
2021/09/15 17:20:53;;;;;;;3.13;2.63;;;;;;;;;;6180625;28;20130;-78
2021/09/15 17:23:54;;;;;;;3.25;2.30;;;;;;;;;;6178981;28;20046;-79
2021/09/15 17:26:56;;;;;;;3.13;2.30;;;;;;;;;;6175412;28;20126;-79
2021/09/15 17:29:58;;;;;;;3.50;2.90;;;;;;;;;;6169672;28;20047;-80
2021/09/15 17:33:01;;;;;;;4.65;3.55;;;;;;;;;;6195337;28;20100;-81
2021/09/15 17:36:03;;;;;;;4.97;3.08;;;;;;;;;;6162717;28;20062;-80
2021/09/15 17:39:05;;;;;;;4.50;3.03;;;;;;;;;;6174253;28;20043;-80
2021/09/15 17:42:08;;;;;;;5.35;3.60;;;;;;;;;;6179961;28;20046;-81
2021/09/15 17:45:11;;;;;;;6.63;4.00;;;;;;;;;;6169820;28;20047;-83
2021/09/15 17:48:13;;;;;;;7.18;3.35;;;;;;;;;;6172728;28;20051;-81
2021/09/15 17:51:18;;;;;;;4.10;3.03;;;;;;;;;;6180860;28;20078;-82
2021/09/15 17:54:19;;;;;;;5.13;3.88;;;;;;;;;;6179123;28;20049;-81
2021/09/15 17:57:21;;;;;;;4.95;3.60;;;;;;;;;;6181315;28;20062;-80
2021/09/15 18:00:23;;;;;;;5.57;3.75;;;;;;;;;;6179391;28;20107;-81
2021/09/15 18:03:25;;;;;;;6.50;4.00;;;;;;;;;;6179422;28;20054;-80
2021/09/15 18:06:26;;;;;;;6.47;4.35;;;;;;;;;;6180148;28;20511;-80
2021/09/15 18:09:29;;;;;;;6.18;4.72;;;;;;;;;;6186930;28;20082;-82
2021/09/15 18:12:31;;;;;;;7.10;4.82;;;;;;;;;;6153026;28;20106;-81
2021/09/15 18:15:32;;;;;;;8.82;4.90;;;;;;;;;;6166728;28;20110;-80
2021/09/15 18:18:34;;;;;;;7.82;5.05;;;;;;;;;;6161931;28;20051;-82
2021/09/15 18:21:37;;;;;;;7.20;4.82;;;;;;;;;;6173821;28;20079;-81
2021/09/15 18:24:38;;;;;;;7.43;5.13;;;;;;;;;;6175802;28;20089;-82